Time;durP1;ratioP1;P1;durP2;ratioP2;P2;SDS_P1;SDS_P2;PMS_P1;PMS_P2;Temp;Humidity;BMP_temperature;BMP_pressure;BME280_temperature;BME280_humidity;BME280_pressure;Samples;Min_cycle;Max_cycle;Signal;HPM_P1;HPM_P2
2023/11/29 08:11:39;;;;;;;3.90;1.53;;;3.90;99.90;;;;;;1890507;23;20242;-76
2023/11/29 08:14:06;;;;;;;4.77;1.70;;;3.90;99.90;;;;;;4955526;28;20243;-78
2023/11/29 08:16:33;;;;;;;4.47;1.67;;;3.90;99.90;;;;;;4951559;28;20224;-79
2023/11/29 08:19:00;;;;;;;2.57;1.20;;;3.80;99.90;;;;;;4925354;29;20225;-79
2023/11/29 08:21:27;;;;;;;8.73;3.00;;;3.90;99.90;;;;;;4928954;29;20222;-77
2023/11/29 08:23:54;;;;;;;6.37;1.60;;;3.90;99.90;;;;;;4916791;29;20213;-79
2023/11/29 08:26:21;;;;;;;4.73;1.50;;;4.00;99.90;;;;;;4915946;29;20232;-76
2023/11/29 08:28:50;;;;;;;2.30;1.20;;;4.00;99.90;;;;;;4928812;29;20603;-76
2023/11/29 08:31:17;;;;;;;2.67;1.27;;;4.00;99.90;;;;;;4931842;29;20602;-78
2023/11/29 08:33:44;;;;;;;1.83;1.03;;;4.00;99.90;;;;;;4916881;29;20553;-80
2023/11/29 08:36:11;;;;;;;3.30;1.57;;;4.00;99.90;;;;;;4919081;29;20197;-82
2023/11/29 08:38:38;;;;;;;3.13;1.60;;;3.90;99.90;;;;;;4920583;29;20278;-81
2023/11/29 08:41:06;;;;;;;5.67;1.57;;;3.80;99.90;;;;;;4932272;29;20669;-79
2023/11/29 08:43:33;;;;;;;3.57;1.77;;;3.80;99.90;;;;;;4916113;29;20244;-76
2023/11/29 08:46:03;;;;;;;3.40;1.53;;;3.80;99.90;;;;;;4916633;29;20207;-76
2023/11/29 08:48:30;;;;;;;2.37;1.13;;;3.80;99.90;;;;;;4917825;29;20229;-77
2023/11/29 08:50:57;;;;;;;2.97;1.17;;;3.80;99.90;;;;;;4934128;29;20686;-80
2023/11/29 08:53:24;;;;;;;3.93;1.40;;;3.80;99.90;;;;;;4916068;29;20218;-80
2023/11/29 08:55:51;;;;;;;4.60;1.43;;;3.90;99.90;;;;;;4916290;29;20220;-76
2023/11/29 08:58:18;;;;;;;2.53;1.33;;;3.90;99.90;;;;;;4916177;29;20268;-80
2023/11/29 09:00:46;;;;;;;5.80;1.60;;;3.90;99.90;;;;;;4935438;29;20213;-80
2023/11/29 09:03:14;;;;;;;4.30;1.50;;;3.90;99.90;;;;;;4916656;29;20213;-77
2023/11/29 09:05:41;;;;;;;3.63;1.40;;;4.00;99.90;;;;;;4931383;29;20215;-76
2023/11/29 09:08:09;;;;;;;3.93;1.70;;;4.00;99.90;;;;;;4927616;29;20699;-77
2023/11/29 09:10:37;;;;;;;3.27;1.50;;;4.10;99.90;;;;;;4934435;29;20240;-76
2023/11/29 09:13:09;;;;;;;2.70;1.77;;;4.30;99.90;;;;;;4918997;29;20662;-75
2023/11/29 09:15:36;;;;;;;1.97;1.30;;;4.40;99.90;;;;;;4932935;29;20219;-74
2023/11/29 09:18:04;;;;;;;4.07;1.67;;;4.60;99.90;;;;;;4932789;29;20576;-79
2023/11/29 09:20:32;;;;;;;2.83;1.47;;;4.80;99.90;;;;;;4932833;29;20209;-75
2023/11/29 09:22:59;;;;;;;2.67;1.30;;;4.90;99.90;;;;;;4930118;29;20303;-76
2023/11/29 09:25:27;;;;;;;2.67;1.17;;;4.80;99.90;;;;;;4929516;29;20284;-75
2023/11/29 09:27:54;;;;;;;4.67;1.50;;;4.70;99.90;;;;;;4929603;29;20616;-75
2023/11/29 09:30:21;;;;;;;4.43;1.30;;;4.70;99.90;;;;;;4932738;29;20591;-86
2023/11/29 09:32:48;;;;;;;2.47;0.80;;;4.70;99.90;;;;;;4932864;29;20557;-74
2023/11/29 09:35:15;;;;;;;2.70;1.30;;;4.70;99.90;;;;;;4935013;29;20209;-74
2023/11/29 09:37:44;;;;;;;4.27;1.67;;;4.80;99.90;;;;;;4937088;29;20710;-75
2023/11/29 09:40:14;;;;;;;3.13;1.23;;;5.00;99.90;;;;;;4938792;29;20212;-74
2023/11/29 09:42:41;;;;;;;2.27;1.53;;;5.10;99.90;;;;;;4937274;29;20306;-77
2023/11/29 09:45:11;;;;;;;5.77;1.60;;;5.20;99.90;;;;;;4938338;29;20213;-76
2023/11/29 09:47:39;;;;;;;6.77;1.97;;;5.30;99.90;;;;;;4937991;29;20628;-75
2023/11/29 09:50:08;;;;;;;2.63;1.20;;;5.20;99.90;;;;;;4937950;29;20256;-75
2023/11/29 09:52:35;;;;;;;3.57;2.20;;;5.40;99.90;;;;;;4938060;29;20268;-77
2023/11/29 09:55:04;;;;;;;5.80;1.93;;;5.50;99.90;;;;;;4938078;29;20299;-77
2023/11/29 09:57:31;;;;;;;3.63;1.03;;;5.70;99.90;;;;;;4938261;29;20240;-77
2023/11/29 09:59:59;;;;;;;6.27;1.97;;;5.90;99.90;;;;;;4938065;29;20209;-76
2023/11/29 10:02:26;;;;;;;6.70;1.53;;;6.10;99.90;;;;;;4937800;29;20678;-75
2023/11/29 10:04:53;;;;;;;3.93;1.90;;;6.30;99.90;;;;;;4937980;29;20216;-77
2023/11/29 10:07:20;;;;;;;3.13;1.13;;;6.40;99.90;;;;;;4938228;29;20267;-76
2023/11/29 10:09:47;;;;;;;3.83;1.80;;;6.50;99.90;;;;;;4937710;29;20677;-76
2023/11/29 10:12:15;;;;;;;2.03;1.10;;;6.50;99.90;;;;;;4937574;29;20668;-77
2023/11/29 10:14:42;;;;;;;2.53;1.03;;;6.40;99.90;;;;;;4937935;29;20208;-76
2023/11/29 10:17:14;;;;;;;3.50;1.40;;;6.40;99.90;;;;;;4937684;29;20209;-75
2023/11/29 10:19:41;;;;;;;5.13;1.43;;;6.30;99.90;;;;;;4937553;29;20323;-75
2023/11/29 10:22:08;;;;;;;5.17;1.30;;;6.30;99.90;;;;;;4937823;29;20596;-76
2023/11/29 10:24:35;;;;;;;2.83;1.10;;;6.40;99.90;;;;;;4938273;29;20209;-75
2023/11/29 10:27:02;;;;;;;2.13;1.10;;;6.70;99.90;;;;;;4937753;29;20276;-76
2023/11/29 10:29:30;;;;;;;4.87;1.37;;;6.90;99.90;;;;;;4937848;29;20213;-74
2023/11/29 10:32:00;;;;;;;3.13;1.37;;;6.90;99.90;;;;;;4937510;29;20212;-75
2023/11/29 10:34:27;;;;;;;3.23;1.17;;;6.90;99.90;;;;;;4937418;29;20672;-76
2023/11/29 10:36:57;;;;;;;3.03;1.20;;;7.00;99.90;;;;;;4937675;29;20280;-77
2023/11/29 10:39:25;;;;;;;3.93;1.07;;;7.20;99.90;;;;;;4937375;29;20239;-74
2023/11/29 10:41:56;;;;;;;3.47;1.60;;;7.20;99.90;;;;;;4937182;29;20231;-77
2023/11/29 10:44:29;;;;;;;2.10;1.20;;;7.20;99.90;;;;;;4937469;29;20205;-76
2023/11/29 10:47:03;;;;;;;1.77;1.30;;;7.10;99.90;;;;;;4937647;29;20212;-77
2023/11/29 10:49:33;;;;;;;3.93;1.37;;;7.20;99.90;;;;;;4936904;29;20553;-75
2023/11/29 10:52:02;;;;;;;4.17;1.20;;;7.10;99.90;;;;;;4937542;29;20213;-76
2023/11/29 10:54:30;;;;;;;2.13;1.37;;;7.10;99.90;;;;;;4937117;29;20567;-76
2023/11/29 10:56:58;;;;;;;3.47;1.80;;;7.10;99.90;;;;;;4936992;29;20300;-76
2023/11/29 10:59:28;;;;;;;3.47;1.77;;;7.30;99.90;;;;;;4936959;29;20252;-76
2023/11/29 11:01:58;;;;;;;5.40;1.50;;;7.40;99.90;;;;;;4936911;29;20213;-75
2023/11/29 11:04:32;;;;;;;2.70;1.37;;;7.60;99.90;;;;;;4937137;29;20209;-75
2023/11/29 11:07:02;;;;;;;2.67;1.50;;;7.40;99.90;;;;;;4936702;29;20216;-76
2023/11/29 11:09:31;;;;;;;4.23;1.23;;;7.30;99.90;;;;;;4936707;29;20209;-76
2023/11/29 11:11:59;;;;;;;4.67;1.17;;;7.40;99.90;;;;;;4936850;29;20248;-77
2023/11/29 11:14:36;;;;;;;6.40;1.80;;;7.10;99.90;;;;;;4937027;29;20236;-77
2023/11/29 11:17:06;;;;;;;3.47;1.40;;;7.10;99.90;;;;;;4936742;29;20212;-76
2023/11/29 11:19:38;;;;;;;4.33;1.20;;;7.10;99.90;;;;;;4936826;29;20209;-76
2023/11/29 11:22:11;;;;;;;2.40;1.40;;;7.30;99.90;;;;;;4942793;29;20260;-74
2023/11/29 11:24:58;;;;;;;5.07;1.90;;;7.40;99.90;;;;;;4935783;29;20207;-74
2023/11/29 11:27:26;;;;;;;3.70;1.30;;;7.50;99.90;;;;;;4917398;29;20229;-75
2023/11/29 11:29:53;;;;;;;2.00;1.10;;;7.60;99.90;;;;;;4917365;29;20237;-77
2023/11/29 11:32:48;;;;;;;5.13;1.13;;;8.10;99.90;;;;;;4917394;29;20249;-77
2023/11/29 11:35:32;;;;;;;4.77;1.50;;;8.00;99.90;;;;;;4915902;29;20224;-76
2023/11/29 11:37:59;;;;;;;3.93;2.43;;;7.70;99.90;;;;;;4933131;29;20263;-76
2023/11/29 11:40:28;;;;;;;2.43;1.40;;;7.70;99.90;;;;;;4936143;29;20751;-76
2023/11/29 11:42:56;;;;;;;4.67;1.23;;;7.50;99.90;;;;;;4935683;29;20288;-76
2023/11/29 11:45:24;;;;;;;2.90;1.33;;;7.50;99.90;;;;;;4935953;29;20236;-74
2023/11/29 11:47:53;;;;;;;4.80;1.27;;;7.40;99.90;;;;;;4935655;29;20253;-75
2023/11/29 11:50:20;;;;;;;2.70;1.27;;;7.20;99.90;;;;;;4936025;29;20228;-75
2023/11/29 11:52:47;;;;;;;2.53;1.13;;;7.10;99.90;;;;;;4935769;29;20208;-76
2023/11/29 11:55:15;;;;;;;1.93;1.10;;;7.10;99.90;;;;;;4935471;29;20224;-77
2023/11/29 11:57:44;;;;;;;3.10;1.70;;;7.00;99.90;;;;;;4935621;29;20719;-76
2023/11/29 12:00:13;;;;;;;4.43;1.33;;;6.80;99.90;;;;;;4935283;29;20727;-74
2023/11/29 12:02:40;;;;;;;2.00;0.87;;;6.70;99.90;;;;;;4936017;29;20292;-75
2023/11/29 12:05:09;;;;;;;5.53;2.53;;;6.70;99.90;;;;;;4936034;29;20217;-75
2023/11/29 12:07:40;;;;;;;5.33;2.07;;;6.60;99.90;;;;;;4935781;29;20233;-74
2023/11/29 12:10:10;;;;;;;6.40;1.30;;;6.60;99.90;;;;;;4935926;29;20241;-75
2023/11/29 12:12:37;;;;;;;4.60;1.53;;;6.70;99.90;;;;;;4935561;29;20703;-74
2023/11/29 12:15:05;;;;;;;7.47;1.73;;;6.70;99.90;;;;;;4936059;29;20213;-75
2023/11/29 12:17:36;;;;;;;4.10;1.63;;;6.70;99.90;;;;;;4935164;29;20232;-76
2023/11/29 12:20:05;;;;;;;3.33;1.60;;;6.60;99.90;;;;;;4933525;29;20201;-76
2023/11/29 12:22:34;;;;;;;4.03;1.60;;;6.40;99.90;;;;;;4935305;29;20795;-76
2023/11/29 12:25:01;;;;;;;4.43;1.47;;;6.50;99.90;;;;;;4932702;29;20212;-74
2023/11/29 12:27:29;;;;;;;3.27;1.40;;;6.60;99.90;;;;;;4935887;29;20224;-74
2023/11/29 12:29:58;;;;;;;4.67;2.03;;;6.60;99.90;;;;;;4936005;29;20204;-74
2023/11/29 12:32:28;;;;;;;3.27;1.67;;;6.60;99.90;;;;;;4936527;29;20691;-73
2023/11/29 12:34:57;;;;;;;4.30;1.63;;;6.40;99.90;;;;;;4935993;29;20660;-73
2023/11/29 12:37:26;;;;;;;9.23;2.60;;;6.40;99.90;;;;;;4935703;29;20755;-73
2023/11/29 12:39:57;;;;;;;3.47;1.80;;;6.40;99.90;;;;;;4936158;29;20663;-74
2023/11/29 12:42:25;;;;;;;4.20;2.10;;;6.50;99.90;;;;;;4935847;29;20576;-71
2023/11/29 12:44:52;;;;;;;2.77;1.73;;;6.60;99.90;;;;;;4929616;29;20223;-75
2023/11/29 12:47:23;;;;;;;3.80;1.80;;;6.60;99.90;;;;;;4936112;29;20331;-77
2023/11/29 12:49:51;;;;;;;7.50;1.80;;;6.70;99.90;;;;;;4934825;29;20331;-77
2023/11/29 12:52:18;;;;;;;5.47;1.93;;;6.70;99.90;;;;;;4944131;28;20231;-78
2023/11/29 12:54:45;;;;;;;6.67;1.53;;;6.70;99.90;;;;;;4940174;29;20209;-76
2023/11/29 12:57:14;;;;;;;4.13;1.53;;;6.80;99.90;;;;;;4933586;29;20212;-75
2023/11/29 12:59:41;;;;;;;2.83;1.30;;;6.70;99.90;;;;;;4922156;29;20206;-75
2023/11/29 13:02:08;;;;;;;3.10;1.40;;;6.80;99.90;;;;;;4934547;29;20215;-75
2023/11/29 13:04:35;;;;;;;3.37;1.60;;;6.60;99.90;;;;;;4931590;28;20218;-73
2023/11/29 13:07:02;;;;;;;3.80;1.60;;;6.60;99.90;;;;;;4914855;29;20212;-75
2023/11/29 13:09:30;;;;;;;5.27;1.53;;;6.60;99.90;;;;;;4914530;29;20201;-73
2023/11/29 13:11:57;;;;;;;4.37;1.43;;;6.60;99.90;;;;;;4930027;29;20247;-75
2023/11/29 13:14:26;;;;;;;4.10;1.90;;;6.70;99.90;;;;;;4936647;29;20200;-73
2023/11/29 13:16:53;;;;;;;4.20;1.30;;;6.60;99.90;;;;;;4938358;29;20220;-76
2023/11/29 13:19:20;;;;;;;3.73;1.67;;;6.80;99.90;;;;;;4937549;29;20224;-74
2023/11/29 13:21:47;;;;;;;2.70;1.30;;;6.80;99.90;;;;;;4938683;29;20223;-74
2023/11/29 13:24:14;;;;;;;3.50;1.50;;;6.80;99.90;;;;;;4931697;29;20220;-74
2023/11/29 13:26:41;;;;;;;4.17;1.90;;;6.80;99.90;;;;;;4919581;29;20298;-76
2023/11/29 13:29:08;;;;;;;2.57;1.13;;;6.80;99.90;;;;;;4919383;29;20221;-75
2023/11/29 13:31:36;;;;;;;3.70;1.77;;;6.90;99.90;;;;;;4919710;29;20348;-75
2023/11/29 13:34:04;;;;;;;3.37;1.40;;;7.00;99.90;;;;;;4921196;29;20210;-76
2023/11/29 13:36:35;;;;;;;6.27;1.77;;;7.00;99.90;;;;;;4918776;29;20573;-76
2023/11/29 13:39:04;;;;;;;2.67;1.27;;;7.20;99.90;;;;;;4923803;29;20224;-75
2023/11/29 13:41:31;;;;;;;2.57;1.20;;;7.20;99.90;;;;;;4920351;29;20244;-75
2023/11/29 13:43:59;;;;;;;3.83;1.67;;;7.30;99.90;;;;;;4934982;29;20627;-78
2023/11/29 13:46:29;;;;;;;4.33;2.10;;;7.30;99.90;;;;;;4919584;29;20206;-74
2023/11/29 13:48:57;;;;;;;6.97;1.50;;;7.30;99.90;;;;;;4919270;29;20277;-75
2023/11/29 13:51:24;;;;;;;2.83;1.00;;;7.30;99.90;;;;;;4919332;29;20233;-75
2023/11/29 13:53:52;;;;;;;1.53;0.50;;;7.00;99.90;;;;;;4921828;29;20215;-74
2023/11/29 13:56:19;;;;;;;1.87;0.50;;;7.10;99.90;;;;;;4918859;29;20660;-75
2023/11/29 13:58:46;;;;;;;0.53;0.40;;;6.90;99.90;;;;;;4919122;29;20234;-75
2023/11/29 14:01:15;;;;;;;3.23;0.73;;;6.80;99.90;;;;;;4919269;29;20237;-74
2023/11/29 14:03:42;;;;;;;3.20;0.63;;;6.60;99.90;;;;;;4922174;29;20569;-75
2023/11/29 14:06:12;;;;;;;4.80;1.23;;;6.40;99.90;;;;;;4918994;29;20264;-74
2023/11/29 14:08:41;;;;;;;1.97;0.60;;;6.20;99.90;;;;;;4919010;29;20237;-75
2023/11/29 14:11:09;;;;;;;2.30;0.90;;;6.20;99.90;;;;;;4936747;29;20247;-75
2023/11/29 14:13:36;;;;;;;0.87;0.53;;;6.00;99.90;;;;;;4937376;29;20209;-75
2023/11/29 14:16:03;;;;;;;4.97;0.53;;;5.90;99.90;;;;;;4919279;29;20640;-76
2023/11/29 14:18:31;;;;;;;1.30;0.53;;;5.90;99.90;;;;;;4918364;29;20293;-74
2023/11/29 14:20:58;;;;;;;0.57;0.50;;;6.00;99.90;;;;;;4918662;29;20276;-75
2023/11/29 14:23:26;;;;;;;5.73;1.17;;;6.10;99.90;;;;;;4919048;29;20573;-75
2023/11/29 14:25:53;;;;;;;1.53;0.60;;;6.10;99.90;;;;;;4921098;29;20209;-75
2023/11/29 14:28:21;;;;;;;1.13;0.60;;;6.20;99.90;;;;;;4918361;29;20336;-75
2023/11/29 14:30:48;;;;;;;2.00;0.50;;;6.10;99.90;;;;;;4918318;29;20609;-75
2023/11/29 14:33:15;;;;;;;1.23;0.63;;;6.20;99.90;;;;;;4918823;29;20512;-75
2023/11/29 14:35:42;;;;;;;1.70;0.70;;;6.20;99.90;;;;;;4922878;29;20300;-76
2023/11/29 14:38:09;;;;;;;1.47;0.57;;;6.20;99.90;;;;;;4936694;29;20264;-76
2023/11/29 14:40:37;;;;;;;0.70;0.60;;;6.20;99.90;;;;;;4929255;29;20616;-77
2023/11/29 14:43:04;;;;;;;1.10;0.60;;;6.20;99.90;;;;;;4917327;29;20293;-77
2023/11/29 14:45:32;;;;;;;1.70;0.50;;;6.30;99.90;;;;;;4923434;29;20217;-77
2023/11/29 14:47:59;;;;;;;1.73;0.50;;;6.30;99.90;;;;;;4917756;29;20293;-74
2023/11/29 14:50:26;;;;;;;3.87;0.60;;;6.40;99.90;;;;;;4918589;29;20210;-74
2023/11/29 14:52:53;;;;;;;1.07;0.63;;;6.40;99.90;;;;;;4918113;29;20244;-74
2023/11/29 14:55:20;;;;;;;1.50;0.70;;;6.40;99.90;;;;;;4923970;29;20669;-75
2023/11/29 14:57:49;;;;;;;2.57;1.67;;;6.40;99.90;;;;;;4917897;29;20230;-75
2023/11/29 15:00:16;;;;;;;2.10;0.77;;;6.60;99.90;;;;;;4918045;29;20296;-74
2023/11/29 15:02:44;;;;;;;6.83;1.50;;;6.70;99.90;;;;;;4918374;29;20214;-75
2023/11/29 15:05:11;;;;;;;3.13;0.77;;;6.80;99.90;;;;;;4927906;29;20241;-76
2023/11/29 15:07:38;;;;;;;2.33;1.20;;;6.80;99.90;;;;;;4917947;29;20255;-75
2023/11/29 15:10:07;;;;;;;1.27;0.80;;;6.80;99.90;;;;;;4917262;29;20292;-75
2023/11/29 15:12:34;;;;;;;1.60;0.83;;;6.60;99.90;;;;;;4917024;29;20245;-76
2023/11/29 15:15:02;;;;;;;0.87;0.70;;;6.20;99.90;;;;;;4924317;29;20209;-75
2023/11/29 15:17:29;;;;;;;7.53;1.23;;;5.70;99.90;;;;;;4917375;29;20233;-76
2023/11/29 15:19:56;;;;;;;1.10;0.73;;;5.50;99.90;;;;;;4917542;29;20210;-74
2023/11/29 15:22:23;;;;;;;2.27;1.10;;;5.50;99.90;;;;;;4917278;29;20301;-74
2023/11/29 15:24:50;;;;;;;2.57;1.23;;;5.50;99.90;;;;;;4924295;29;20584;-75
2023/11/29 15:27:17;;;;;;;5.23;0.90;;;5.60;99.90;;;;;;4916030;29;20220;-74
2023/11/29 15:29:44;;;;;;;1.60;0.90;;;5.80;99.90;;;;;;4916433;29;20204;-74
2023/11/29 15:32:13;;;;;;;0.97;0.87;;;5.80;99.90;;;;;;4931892;29;20331;-74
2023/11/29 15:34:40;;;;;;;2.70;1.17;;;5.70;99.90;;;;;;4932498;29;20206;-74
2023/11/29 15:37:07;;;;;;;3.20;1.40;;;5.70;99.90;;;;;;4916872;29;20233;-74
2023/11/29 15:39:34;;;;;;;5.03;2.20;;;5.70;99.90;;;;;;4934055;29;20219;-73
2023/11/29 15:42:03;;;;;;;3.40;2.07;;;5.60;99.90;;;;;;4916583;29;20217;-74
2023/11/29 15:44:31;;;;;;;4.70;2.27;;;5.50;99.90;;;;;;4925253;29;20584;-74
2023/11/29 15:46:58;;;;;;;4.63;1.70;;;5.60;99.90;;;;;;4917005;29;20214;-75
2023/11/29 15:49:26;;;;;;;2.47;1.67;;;5.70;99.90;;;;;;4917011;29;20248;-74
2023/11/29 15:51:53;;;;;;;3.13;1.73;;;5.80;99.90;;;;;;4917135;29;20233;-74
2023/11/29 15:54:20;;;;;;;3.13;1.60;;;5.70;99.90;;;;;;4925692;29;20249;-77
2023/11/29 15:56:47;;;;;;;5.67;1.70;;;5.70;99.90;;;;;;4917178;29;20290;-77
2023/11/29 15:59:14;;;;;;;5.00;1.47;;;5.70;99.90;;;;;;4929296;29;20233;-77
2023/11/29 16:01:41;;;;;;;1.60;1.10;;;5.70;99.90;;;;;;4918391;29;20263;-76
2023/11/29 16:04:08;;;;;;;2.83;1.10;;;5.70;99.90;;;;;;4924157;29;20219;-77
2023/11/29 16:06:37;;;;;;;1.83;1.20;;;5.60;99.90;;;;;;4919299;29;20210;-77
2023/11/29 16:09:04;;;;;;;7.43;1.10;;;5.60;99.90;;;;;;4916845;29;20249;-77
2023/11/29 16:11:31;;;;;;;4.77;1.07;;;5.60;99.90;;;;;;4916528;29;20237;-76
2023/11/29 16:13:58;;;;;;;1.33;1.00;;;5.50;99.90;;;;;;4922016;29;20240;-76
2023/11/29 16:16:25;;;;;;;3.57;1.47;;;5.50;99.90;;;;;;4921557;29;20210;-76
2023/11/29 16:18:52;;;;;;;3.53;1.27;;;5.40;99.90;;;;;;4917178;29;20233;-74
2023/11/29 16:21:19;;;;;;;2.63;1.10;;;5.30;99.90;;;;;;4916135;29;20238;-75
2023/11/29 16:23:47;;;;;;;3.33;1.10;;;5.20;99.90;;;;;;4920888;29;20209;-76
2023/11/29 16:26:14;;;;;;;1.83;1.03;;;5.10;99.90;;;;;;4934561;29;20209;-75
2023/11/29 16:28:42;;;;;;;3.60;1.20;;;5.00;99.90;;;;;;4935521;29;20295;-79
2023/11/29 16:31:09;;;;;;;2.67;1.80;;;4.90;99.90;;;;;;4924959;29;20293;-77
2023/11/29 16:33:36;;;;;;;2.37;1.20;;;4.90;99.90;;;;;;4919993;29;20658;-76
2023/11/29 16:36:03;;;;;;;1.93;1.20;;;4.90;99.90;;;;;;4925395;29;20210;-79
2023/11/29 16:38:30;;;;;;;2.90;1.50;;;4.90;99.90;;;;;;4936434;29;20691;-78
2023/11/29 16:40:59;;;;;;;1.83;1.23;;;4.90;99.90;;;;;;4932189;29;20295;-78
2023/11/29 16:43:27;;;;;;;3.40;1.70;;;5.00;99.90;;;;;;4932625;29;20664;-75
2023/11/29 16:45:54;;;;;;;4.70;1.50;;;5.00;99.90;;;;;;4933988;29;20571;-75
2023/11/29 16:48:21;;;;;;;2.23;1.43;;;5.10;99.90;;;;;;4937781;29;20324;-74
2023/11/29 16:50:48;;;;;;;2.53;1.60;;;5.20;99.90;;;;;;4937395;29;20292;-75
2023/11/29 16:53:15;;;;;;;2.80;1.93;;;5.10;99.90;;;;;;4936684;29;20239;-76
2023/11/29 16:55:42;;;;;;;2.30;1.50;;;5.00;99.90;;;;;;4930589;29;20213;-75
2023/11/29 16:58:11;;;;;;;2.97;1.90;;;4.90;99.90;;;;;;4918697;29;20240;-75
2023/11/29 17:00:39;;;;;;;4.03;1.40;;;5.00;99.90;;;;;;4924209;29;20208;-74
2023/11/29 17:03:07;;;;;;;2.10;1.40;;;5.00;99.90;;;;;;4937506;29;20672;-77
2023/11/29 17:05:34;;;;;;;2.10;1.07;;;5.00;99.90;;;;;;4931175;29;20241;-75
2023/11/29 17:08:01;;;;;;;2.83;1.40;;;5.00;99.90;;;;;;4918616;29;20238;-75
2023/11/29 17:10:28;;;;;;;4.43;1.57;;;4.90;99.90;;;;;;4918430;29;20205;-74
2023/11/29 17:12:55;;;;;;;3.80;1.80;;;4.90;99.90;;;;;;4918688;29;20241;-74
2023/11/29 17:15:24;;;;;;;2.63;1.50;;;5.00;99.90;;;;;;4931425;29;20297;-74
2023/11/29 17:17:51;;;;;;;2.80;1.80;;;4.90;99.90;;;;;;4917786;29;20330;-74
2023/11/29 17:20:18;;;;;;;3.83;1.90;;;4.80;99.90;;;;;;4926713;29;20292;-80
2023/11/29 17:22:45;;;;;;;4.53;1.70;;;4.80;99.90;;;;;;4918343;29;20209;-74
2023/11/29 17:25:16;;;;;;;4.37;2.37;;;4.80;99.90;;;;;;4932247;29;20216;-77
2023/11/29 17:27:43;;;;;;;3.17;1.83;;;4.80;99.90;;;;;;4918454;29;20602;-76
2023/11/29 17:30:11;;;;;;;2.63;1.47;;;4.90;99.90;;;;;;4918037;29;20221;-75
2023/11/29 17:32:39;;;;;;;3.33;2.10;;;4.90;99.90;;;;;;4917813;29;20245;-74
2023/11/29 17:35:08;;;;;;;6.00;2.40;;;4.90;99.90;;;;;;4932294;29;20221;-75
2023/11/29 17:37:35;;;;;;;5.20;2.77;;;4.80;99.90;;;;;;4917714;29;20230;-74
2023/11/29 17:40:02;;;;;;;4.47;2.57;;;4.80;99.90;;;;;;4946136;29;20204;-79
2023/11/29 17:42:29;;;;;;;5.07;2.30;;;4.90;99.90;;;;;;4930320;29;20240;-78
2023/11/29 17:44:56;;;;;;;5.27;2.40;;;4.90;99.90;;;;;;4937121;29;20295;-75
2023/11/29 17:47:23;;;;;;;7.57;1.97;;;5.00;99.90;;;;;;4936502;29;20232;-75
2023/11/29 17:49:52;;;;;;;4.53;1.80;;;5.00;99.90;;;;;;4936665;29;20224;-74
2023/11/29 17:52:19;;;;;;;4.40;2.53;;;5.00;99.90;;;;;;4919846;29;20233;-75
2023/11/29 17:54:47;;;;;;;4.20;2.30;;;5.00;99.90;;;;;;4929158;29;20209;-75
2023/11/29 17:57:14;;;;;;;3.33;2.03;;;5.00;99.90;;;;;;4920170;29;21166;-75
2023/11/29 17:59:41;;;;;;;4.07;1.87;;;5.10;99.90;;;;;;4924107;29;20269;-77
2023/11/29 18:02:08;;;;;;;4.67;2.20;;;5.10;99.90;;;;;;4938679;29;20201;-77
2023/11/29 18:04:35;;;;;;;5.57;2.87;;;5.00;99.90;;;;;;4938626;29;20209;-76
2023/11/29 18:07:04;;;;;;;5.03;2.67;;;4.70;99.90;;;;;;4936040;29;20205;-79
2023/11/29 18:09:31;;;;;;;4.70;2.80;;;4.80;99.90;;;;;;4938227;29;20212;-76
2023/11/29 18:11:58;;;;;;;5.23;3.07;;;4.90;99.90;;;;;;4933765;29;20235;-77
2023/11/29 18:14:25;;;;;;;4.40;2.07;;;5.00;99.90;;;;;;4935696;29;20212;-78
2023/11/29 18:16:52;;;;;;;5.73;2.40;;;5.00;99.90;;;;;;4934489;29;20230;-79
2023/11/29 18:19:19;;;;;;;5.33;2.40;;;4.80;99.90;;;;;;4939668;29;20295;-80
2023/11/29 18:21:46;;;;;;;6.60;2.90;;;4.90;99.90;;;;;;4936817;29;20205;-76
2023/11/29 18:24:14;;;;;;;3.40;2.13;;;4.90;99.90;;;;;;4931603;29;20660;-75
2023/11/29 18:26:41;;;;;;;6.60;2.23;;;4.90;99.90;;;;;;4929476;29;20213;-75
2023/11/29 18:29:08;;;;;;;4.57;2.47;;;4.90;99.90;;;;;;4931981;29;20248;-75
2023/11/29 18:31:35;;;;;;;6.67;2.17;;;4.90;99.90;;;;;;4928355;29;20669;-75
2023/11/29 18:34:03;;;;;;;3.93;2.23;;;4.80;99.90;;;;;;4936507;29;20240;-75
2023/11/29 18:36:30;;;;;;;4.63;2.33;;;4.80;99.90;;;;;;4936759;29;20209;-74
2023/11/29 18:38:58;;;;;;;4.03;2.03;;;4.80;99.90;;;;;;4936378;29;20233;-75
2023/11/29 18:41:26;;;;;;;6.67;2.30;;;4.80;99.90;;;;;;4935940;29;20664;-76
2023/11/29 18:43:54;;;;;;;9.60;2.30;;;4.80;99.90;;;;;;4936085;29;20205;-74
2023/11/29 18:46:21;;;;;;;2.97;1.77;;;4.80;99.90;;;;;;4936603;29;20205;-75
2023/11/29 18:48:48;;;;;;;2.70;1.80;;;4.80;99.90;;;;;;4936018;29;20696;-75
2023/11/29 18:51:18;;;;;;;3.20;1.70;;;4.80;99.90;;;;;;4936817;29;20219;-74
2023/11/29 18:53:45;;;;;;;4.60;2.13;;;4.70;99.90;;;;;;4933511;29;20269;-74
2023/11/29 18:56:12;;;;;;;4.77;2.33;;;4.60;99.90;;;;;;4931989;29;20240;-75
2023/11/29 18:58:41;;;;;;;3.57;1.80;;;4.60;99.90;;;;;;4935116;29;20239;-75
2023/11/29 19:01:09;;;;;;;6.13;2.70;;;4.60;99.90;;;;;;4935864;29;20217;-75
2023/11/29 19:03:36;;;;;;;3.90;2.27;;;4.60;99.90;;;;;;4930767;29;20573;-75
2023/11/29 19:06:03;;;;;;;3.60;2.30;;;4.60;99.90;;;;;;4933180;29;20205;-78
2023/11/29 19:08:31;;;;;;;4.20;2.23;;;4.60;99.90;;;;;;4927986;29;20224;-75
2023/11/29 19:10:58;;;;;;;5.77;2.60;;;4.60;99.90;;;;;;4935576;29;20209;-75
2023/11/29 19:13:25;;;;;;;4.40;2.17;;;4.60;99.90;;;;;;4944285;28;20236;-74
2023/11/29 19:15:53;;;;;;;5.17;2.43;;;4.70;99.90;;;;;;4935581;29;20565;-75
2023/11/29 19:18:20;;;;;;;4.80;2.67;;;4.60;99.90;;;;;;4926457;29;20234;-75
2023/11/29 19:20:48;;;;;;;6.80;2.83;;;4.60;99.90;;;;;;4939336;29;20747;-76
2023/11/29 19:23:15;;;;;;;5.00;2.60;;;4.60;99.90;;;;;;4939883;28;20240;-77
2023/11/29 19:25:42;;;;;;;4.30;2.50;;;4.50;99.90;;;;;;4925340;29;20656;-77
2023/11/29 19:28:09;;;;;;;5.23;2.43;;;4.50;99.90;;;;;;4931872;29;20233;-76
2023/11/29 19:30:36;;;;;;;6.67;2.97;;;4.50;99.90;;;;;;4936304;29;20576;-77
2023/11/29 19:33:04;;;;;;;6.47;2.97;;;4.50;99.90;;;;;;4935239;29;20721;-77
2023/11/29 19:35:34;;;;;;;5.40;2.63;;;4.60;99.90;;;;;;4935736;29;20549;-77
2023/11/29 19:38:02;;;;;;;7.13;3.53;;;4.60;99.90;;;;;;4935519;29;20291;-77
2023/11/29 19:40:29;;;;;;;11.37;2.87;;;4.60;99.90;;;;;;4935946;29;20201;-76
2023/11/29 19:42:56;;;;;;;4.73;2.60;;;4.60;99.90;;;;;;4935787;29;20577;-77
2023/11/29 19:45:23;;;;;;;4.57;2.70;;;4.70;99.90;;;;;;4935084;29;20208;-76
2023/11/29 19:47:50;;;;;;;5.73;3.03;;;4.70;99.90;;;;;;4935466;29;20690;-77
2023/11/29 19:50:18;;;;;;;5.33;2.80;;;4.70;99.90;;;;;;4935425;29;20216;-77
2023/11/29 19:52:45;;;;;;;6.73;2.60;;;4.70;99.90;;;;;;4935418;29;20672;-77
2023/11/29 19:55:12;;;;;;;9.20;3.00;;;4.70;99.90;;;;;;4933476;29;20293;-77
2023/11/29 19:57:39;;;;;;;6.70;3.30;;;4.70;99.90;;;;;;4923036;29;20653;-76
2023/11/29 20:00:07;;;;;;;6.00;3.13;;;4.80;99.90;;;;;;4935750;29;20208;-77
2023/11/29 20:02:34;;;;;;;6.00;3.10;;;4.70;99.90;;;;;;4935264;29;20216;-76
2023/11/29 20:05:01;;;;;;;6.97;2.60;;;4.70;99.90;;;;;;4935219;29;20220;-77
2023/11/29 20:07:30;;;;;;;10.50;4.07;;;4.70;99.90;;;;;;4935772;29;20220;-76
2023/11/29 20:09:57;;;;;;;7.33;3.97;;;4.70;99.90;;;;;;4935549;29;20683;-76
2023/11/29 20:12:24;;;;;;;7.30;3.47;;;4.70;99.90;;;;;;4935049;29;20209;-76
2023/11/29 20:14:51;;;;;;;7.73;4.63;;;4.80;99.90;;;;;;4935598;29;20301;-76
2023/11/29 20:17:18;;;;;;;10.07;3.93;;;4.70;99.90;;;;;;4934726;29;20216;-77
2023/11/29 20:19:45;;;;;;;8.80;3.33;;;4.80;99.90;;;;;;4935110;29;20208;-76
2023/11/29 20:22:12;;;;;;;8.77;4.07;;;4.60;99.90;;;;;;4934313;29;20211;-77
2023/11/29 20:24:40;;;;;;;6.93;3.23;;;4.70;99.90;;;;;;4935029;29;20276;-77
2023/11/29 20:27:07;;;;;;;6.37;3.10;;;4.80;99.90;;;;;;4934362;29;20296;-76
2023/11/29 20:29:34;;;;;;;7.97;3.70;;;4.80;99.90;;;;;;4934613;29;20208;-77
2023/11/29 20:32:01;;;;;;;8.93;3.40;;;4.90;99.90;;;;;;4934347;29;20220;-77
2023/11/29 20:34:28;;;;;;;6.50;2.90;;;4.80;99.90;;;;;;4934608;29;20295;-77
2023/11/29 20:36:55;;;;;;;7.43;3.23;;;4.80;99.90;;;;;;4934644;29;20244;-77
2023/11/29 20:39:22;;;;;;;6.00;3.03;;;4.70;99.90;;;;;;4934290;29;20236;-77
2023/11/29 20:41:51;;;;;;;9.87;3.30;;;4.80;99.90;;;;;;4934890;29;20244;-76
2023/11/29 20:44:18;;;;;;;4.97;3.07;;;4.80;99.90;;;;;;4934915;29;20280;-77
2023/11/29 20:46:45;;;;;;;7.33;3.40;;;4.90;99.90;;;;;;4934949;29;20292;-77
2023/11/29 20:49:12;;;;;;;6.87;4.00;;;4.90;99.90;;;;;;4934676;29;20233;-77
2023/11/29 20:51:41;;;;;;;6.40;3.53;;;4.90;99.90;;;;;;4934664;29;20205;-77
2023/11/29 20:54:08;;;;;;;6.23;3.17;;;5.00;99.90;;;;;;4934394;29;20236;-77
2023/11/29 20:56:35;;;;;;;8.53;3.13;;;5.00;99.90;;;;;;4934351;29;20209;-76
2023/11/29 20:59:03;;;;;;;6.30;3.80;;;5.00;99.90;;;;;;4934590;29;20291;-77
2023/11/29 21:01:30;;;;;;;7.07;3.30;;;5.00;99.90;;;;;;4934908;29;20201;-77
2023/11/29 21:03:58;;;;;;;10.77;4.83;;;5.10;99.90;;;;;;4935119;29;20260;-76
2023/11/29 21:06:25;;;;;;;7.67;3.80;;;5.00;99.90;;;;;;4935396;29;20617;-76
2023/11/29 21:08:52;;;;;;;9.23;3.80;;;5.00;99.90;;;;;;4938193;29;20232;-77
2023/11/29 21:11:19;;;;;;;7.83;3.73;;;5.00;99.90;;;;;;4944481;28;20311;-77